NCAR-RAP Real-Time Weather Data

Output produced by METARs form (24 July 2017  08:49 UTC)
found at http://weather.rap.ucar.edu/surface/
 
Conditions at: KAPF observed 24 July 2017  07:53 UTC
Temperature: 25.0°C (77°F)
Dewpoint: 24.4°C (76°F) [RH = 96%]
Pressure (altimeter): 30.01 inches Hg (1016.3 mb)
[Sea-level pressure: 1016.0 mb]
Winds: from the ENE (60 degrees) at 3 MPH (3 knots; 1.6 m/s)
Visibility: 10 or more miles (16+ km)
Ceiling: at least 12,000 feet AGL
Clouds: sky clear below 12,000 feet AGL
Present Weather: automated observation with no human augmentation;
there may or may not be significant weather present at this time
KAPF 240753Z AUTO 06003KT 10SM CLR 25/24 A3001 RMK AO2 SLP160 T02500244

Conditions at: KAPF observed 24 July 2017  06:53 UTC
Temperature: 25.6°C (78°F)
Dewpoint: 24.4°C (76°F) [RH = 93%]
Pressure (altimeter): 30.00 inches Hg (1016.0 mb)
[Sea-level pressure: 1015.8 mb]
Winds: calm
Visibility: 10 or more miles (16+ km)
Ceiling: at least 12,000 feet AGL
Clouds: sky clear below 12,000 feet AGL
Present Weather: automated observation with no human augmentation;
there may or may not be significant weather present at this time
KAPF 240653Z AUTO 00000KT 10SM CLR 26/24 A3000 RMK AO2 SLP158 T02560244

Conditions at: KAPF observed 24 July 2017  05:53 UTC
Temperature: 26.7°C (80°F)
Dewpoint: 24.4°C (76°F) [RH = 87%]
Pressure (altimeter): 30.01 inches Hg (1016.3 mb)
[Sea-level pressure: 1016.2 mb]
Winds: calm
Visibility: 10 or more miles (16+ km)
Ceiling: at least 12,000 feet AGL
Clouds: sky clear below 12,000 feet AGL
Present Weather: automated observation with no human augmentation;
there may or may not be significant weather present at this time
KAPF 240553Z AUTO 00000KT 10SM CLR 27/24 A3001 RMK AO2 SLP162 T02670244 10289 20261 58009

Conditions at: KAPF observed 24 July 2017  04:53 UTC
Temperature: 26.7°C (80°F)
Dewpoint: 24.4°C (76°F) [RH = 87%]
Pressure (altimeter): 30.03 inches Hg (1017.0 mb)
[Sea-level pressure: 1016.9 mb]
Winds: from the ESE (110 degrees) at 3 MPH (3 knots; 1.6 m/s)
Visibility: 10 or more miles (16+ km)
Ceiling: at least 12,000 feet AGL
Clouds: sky clear below 12,000 feet AGL
Present Weather: automated observation with no human augmentation;
there may or may not be significant weather present at this time
KAPF 240453Z AUTO 11003KT 10SM CLR 27/24 A3003 RMK AO2 SLP169 T02670244 403170244

Conditions at: KAPF observed 24 July 2017  03:53 UTC
Temperature: 26.7°C (80°F)
Dewpoint: 24.4°C (76°F) [RH = 87%]
Pressure (altimeter): 30.04 inches Hg (1017.4 mb)
[Sea-level pressure: 1017.0 mb]
Winds: calm
Visibility: 10 or more miles (16+ km)
Ceiling: at least 12,000 feet AGL
Clouds: sky clear below 12,000 feet AGL
Present Weather: automated observation with no human augmentation;
there may or may not be significant weather present at this time
KAPF 240353Z AUTO 00000KT 10SM CLR 27/24 A3004 RMK AO2 SLP170 T02670244

Conditions at: KAPF observed 24 July 2017  02:53 UTC
Temperature: 26.7°C (80°F)
Dewpoint: 24.4°C (76°F) [RH = 87%]
Pressure (altimeter): 30.04 inches Hg (1017.4 mb)
[Sea-level pressure: 1017.1 mb]
Winds: from the ESE (120 degrees) at 3 MPH (3 knots; 1.6 m/s)
Visibility: 10 or more miles (16+ km)
Ceiling: at least 12,000 feet AGL
Clouds: sky clear below 12,000 feet AGL
Present Weather: automated observation with no human augmentation;
there may or may not be significant weather present at this time
KAPF 240253Z AUTO 12003KT 10SM CLR 27/24 A3004 RMK AO2 SLP171 T02670244 53015

Conditions at: KAPF observed 24 July 2017  02:07 UTC
Temperature: 26.7°C (80°F)
Dewpoint: 24.4°C (76°F) [RH = 87%]
Pressure (altimeter): 30.03 inches Hg (1017.0 mb)
Winds: from the ESE (120 degrees) at 6 MPH (5 knots; 2.6 m/s)
Visibility: 10 or more miles (16+ km)
Ceiling: at least 12,000 feet AGL
Clouds: scattered clouds at 2800 feet AGL
Present Weather: automated observation with no human augmentation;
there may or may not be significant weather present at this time
KAPF 240207Z AUTO 12005KT 10SM SCT028 27/24 A3003 RMK AO2 T02670244

Conditions at: KAPF observed 24 July 2017  01:53 UTC
Temperature: 27.2°C (81°F)
Dewpoint: 23.9°C (75°F) [RH = 82%]
Pressure (altimeter): 30.03 inches Hg (1017.0 mb)
[Sea-level pressure: 1016.6 mb]
Winds: from the ESE (120 degrees) at 5 MPH (4 knots; 2.1 m/s)
Visibility: 10 or more miles (16+ km)
Ceiling: 2800 feet AGL
Clouds: broken clouds at 2800 feet AGL
Present Weather: automated observation with no human augmentation;
there may or may not be significant weather present at this time
KAPF 240153Z AUTO 12004KT 10SM BKN028 27/24 A3003 RMK AO2 SLP166 T02720239

Conditions at: KAPF observed 24 July 2017  00:53 UTC
Temperature: 27.8°C (82°F)
Dewpoint: 23.3°C (74°F) [RH = 77%]
Pressure (altimeter): 30.01 inches Hg (1016.3 mb)
[Sea-level pressure: 1016.0 mb]
Winds: from the E (100 degrees) at 5 MPH (4 knots; 2.1 m/s)
Visibility: 10 or more miles (16+ km)
Ceiling: at least 12,000 feet AGL
Clouds: few clouds at 2500 feet AGL
Present Weather: no significant weather observed at this time
KAPF 240053Z 10004KT 10SM FEW025 28/23 A3001 RMK AO2 SLP160 T02780233

Conditions at: KAPF observed 23 July 2017  23:53 UTC
Temperature: 28.9°C (84°F)
Dewpoint: 23.9°C (75°F) [RH = 74%]
Pressure (altimeter): 30.00 inches Hg (1016.0 mb)
[Sea-level pressure: 1015.7 mb]
Winds: from the SE (130 degrees) at 6 MPH (5 knots; 2.6 m/s)
Visibility: 10 or more miles (16+ km)
Ceiling: at least 12,000 feet AGL
Clouds: sky clear below 12,000 feet AGL
Present Weather: no significant weather observed at this time
KAPF 232353Z 13005KT 10SM CLR 29/24 A3000 RMK AO2 SLP157 T02890239 10311 20289 56006

Conditions at: KAPF observed 23 July 2017  22:53 UTC
Temperature: 30.6°C (87°F)
Dewpoint: 23.9°C (75°F) [RH = 68%]
Pressure (altimeter): 30.00 inches Hg (1016.0 mb)
[Sea-level pressure: 1015.7 mb]
Winds: calm
Visibility: 10 or more miles (16+ km)
Ceiling: at least 12,000 feet AGL
Clouds: sky clear below 12,000 feet AGL
Present Weather: no significant weather observed at this time
KAPF 232253Z 00000KT 10SM CLR 31/24 A3000 RMK AO2 LTG DSNT NE SLP157 T03060239

Conditions at: KAPF observed 23 July 2017  21:53 UTC
Temperature: 30.0°C (86°F)
Dewpoint: 24.4°C (76°F) [RH = 72%]
Pressure (altimeter): 30.01 inches Hg (1016.3 mb)
[Sea-level pressure: 1016.0 mb]
Winds: from the W (280 degrees) at 5 MPH (4 knots; 2.1 m/s)
Visibility: 10 or more miles (16+ km)
Ceiling: at least 12,000 feet AGL
Clouds: scattered clouds at 2700 feet AGL
Present Weather: no significant weather observed at this time
KAPF 232153Z 28004KT 10SM SCT027 30/24 A3001 RMK AO2 LTG DSNT NE-SE SLP160 T03000244

Conditions at: KAPF observed 23 July 2017  20:53 UTC
Temperature: 30.6°C (87°F)
Dewpoint: 23.9°C (75°F) [RH = 68%]
Pressure (altimeter): 30.02 inches Hg (1016.7 mb)
[Sea-level pressure: 1016.3 mb]
Winds: from the WSW (240 degrees) at 6 MPH (5 knots; 2.6 m/s)
Visibility: 10 or more miles (16+ km)
Ceiling: at least 12,000 feet AGL
Clouds: few clouds at 2100 feet AGL
Present Weather: no significant weather observed at this time
KAPF 232053Z 24005KT 10SM FEW021 31/24 A3002 RMK AO2 SLP163 T03060239 56011

Conditions at: KAPF observed 23 July 2017  19:53 UTC
Temperature: 31.1°C (88°F)
Dewpoint: 25.0°C (77°F) [RH = 70%]
Pressure (altimeter): 30.02 inches Hg (1016.7 mb)
[Sea-level pressure: 1016.3 mb]
Winds: from the W (280 degrees) at 10 MPH (9 knots; 4.7 m/s)
Visibility: 10 or more miles (16+ km)
Ceiling: at least 12,000 feet AGL
Clouds: sky clear below 12,000 feet AGL
Present Weather: no significant weather observed at this time
KAPF 231953Z 28009KT 10SM CLR 31/25 A3002 RMK AO2 SLP163 T03110250

Conditions at: KAPF observed 23 July 2017  18:53 UTC
Temperature: 31.1°C (88°F)
Dewpoint: 24.4°C (76°F) [RH = 68%]
Pressure (altimeter): 30.04 inches Hg (1017.4 mb)
[Sea-level pressure: 1017.1 mb]
Winds: from the WSW (240 degrees) at 8 MPH (7 knots; 3.6 m/s)
Visibility: 10 or more miles (16+ km)
Ceiling: at least 12,000 feet AGL
Clouds: sky clear below 12,000 feet AGL
Present Weather: no significant weather observed at this time
KAPF 231853Z 24007KT 10SM CLR 31/24 A3004 RMK AO2 SLP171 T03110244

Conditions at: KAPF observed 23 July 2017  17:53 UTC
Temperature: 31.1°C (88°F)
Dewpoint: 24.4°C (76°F) [RH = 68%]
Pressure (altimeter): 30.05 inches Hg (1017.7 mb)
[Sea-level pressure: 1017.4 mb]
Winds: from the SW (230 degrees) at 8 MPH (7 knots; 3.6 m/s)
Visibility: 10 or more miles (16+ km)
Ceiling: at least 12,000 feet AGL
Clouds: scattered clouds at 2500 feet AGL
scattered clouds at 5500 feet AGL
Present Weather: no significant weather observed at this time
KAPF 231753Z 23007KT 10SM SCT025 SCT055 31/24 A3005 RMK AO2 SLP174 T03110244 10317 20256 58004

Conditions at: KAPF observed 23 July 2017  16:53 UTC
Temperature: 30.6°C (87°F)
Dewpoint: 24.4°C (76°F) [RH = 70%]
Pressure (altimeter): 30.05 inches Hg (1017.7 mb)
[Sea-level pressure: 1017.5 mb]
Winds: from the SW (220 degrees) at 8 MPH (7 knots; 3.6 m/s)
Visibility: 10 or more miles (16+ km)
Ceiling: at least 12,000 feet AGL
Clouds: scattered clouds at 2500 feet AGL
scattered clouds at 5500 feet AGL
Present Weather: no significant weather observed at this time
KAPF 231653Z 22007KT 10SM SCT025 SCT055 31/24 A3005 RMK AO2 SLP175 VCSH NE MOV LTL T03060244

Conditions at: KAPF observed 23 July 2017  16:44 UTC
Temperature: 30.6°C (87°F)
Dewpoint: 24.4°C (76°F) [RH = 70%]
Pressure (altimeter): 30.05 inches Hg (1017.7 mb)
Winds: from the SW (220 degrees) at 10 MPH (9 knots; 4.7 m/s)
Visibility: 10 or more miles (16+ km)
Ceiling: at least 12,000 feet AGL
Clouds: scattered clouds at 5500 feet AGL
scattered clouds at 9500 feet AGL
Present Weather: no significant weather observed at this time
KAPF 231644Z 22009KT 10SM SCT055 SCT095 31/24 A3005 RMK AO2 T03060244

Conditions at: KAPF observed 23 July 2017  15:53 UTC
Temperature: 31.1°C (88°F)
Dewpoint: 23.9°C (75°F) [RH = 66%]
Pressure (altimeter): 30.06 inches Hg (1018.0 mb)
[Sea-level pressure: 1017.8 mb]
Winds: from the SSW (210 degrees) at 9 MPH (8 knots; 4.2 m/s)
Visibility: 10 or more miles (16+ km)
Ceiling: at least 12,000 feet AGL
Clouds: few clouds at 5500 feet AGL
few clouds at 9500 feet AGL
Present Weather: VCTS  (thunderstorm in vicinity)
KAPF 231553Z 21008KT 10SM VCTS FEW055 FEW095 31/24 A3006 RMK AO2 SLP178 T03110239

Conditions at: KAPF observed 23 July 2017  14:53 UTC
Temperature: 31.1°C (88°F)
Dewpoint: 24.4°C (76°F) [RH = 68%]
Pressure (altimeter): 30.06 inches Hg (1018.0 mb)
[Sea-level pressure: 1017.8 mb]
Winds: variable direction winds at 5 MPH (4 knots; 2.1 m/s)
Visibility: 10 or more miles (16+ km)
Ceiling: at least 12,000 feet AGL
Clouds: few clouds at 2600 feet AGL
few clouds at 3300 feet AGL
Present Weather: no significant weather observed at this time
KAPF 231453Z VRB04KT 10SM FEW026 FEW033 31/24 A3006 RMK AO2 SLP178 T03110244 53008

Conditions at: KAPF observed 23 July 2017  13:53 UTC
Temperature: 30.0°C (86°F)
Dewpoint: 25.0°C (77°F) [RH = 75%]
Pressure (altimeter): 30.04 inches Hg (1017.4 mb)
[Sea-level pressure: 1017.3 mb]
Winds: variable direction winds at 6 MPH (5 knots; 2.6 m/s)
Visibility: 10 or more miles (16+ km)
Ceiling: at least 12,000 feet AGL
Clouds: sky clear below 12,000 feet AGL
Present Weather: no significant weather observed at this time
KAPF 231353Z VRB05KT 10SM CLR 30/25 A3004 RMK AO2 LTG DSNT W AND NW SLP173 T03000250

Conditions at: KAPF observed 23 July 2017  12:53 UTC
Temperature: 28.3°C (83°F)
Dewpoint: 25.0°C (77°F) [RH = 82%]
Pressure (altimeter): 30.04 inches Hg (1017.4 mb)
[Sea-level pressure: 1017.0 mb]
Winds: variable direction winds at 6 MPH (5 knots; 2.6 m/s)
Visibility: 10 or more miles (16+ km)
Ceiling: at least 12,000 feet AGL
Clouds: sky clear below 12,000 feet AGL
Present Weather: no significant weather observed at this time
KAPF 231253Z VRB05KT 10SM CLR 28/25 A3004 RMK AO2 SLP170 T02830250

Conditions at: KAPF observed 23 July 2017  11:53 UTC
Temperature: 25.6°C (78°F)
Dewpoint: 24.4°C (76°F) [RH = 93%]
Pressure (altimeter): 30.04 inches Hg (1017.4 mb)
[Sea-level pressure: 1017.0 mb]
Winds: calm
Visibility: 10 or more miles (16+ km)
Ceiling: at least 12,000 feet AGL
Clouds: sky clear below 12,000 feet AGL
Present Weather: no significant weather observed at this time
KAPF 231153Z 00000KT 10SM CLR 26/24 A3004 RMK AO2 SLP170 TCU DSNT S-NW 70003 T02560244 10261 20244 53008

Conditions at: KAPF observed 23 July 2017  10:53 UTC
Temperature: 24.4°C (76°F)
Dewpoint: 23.9°C (75°F) [RH = 97%]
Pressure (altimeter): 30.03 inches Hg (1017.0 mb)
[Sea-level pressure: 1016.6 mb]
Winds: calm
Visibility: 10 or more miles (16+ km)
Ceiling: at least 12,000 feet AGL
Clouds: sky clear below 12,000 feet AGL
Present Weather: no significant weather observed at this time
KAPF 231053Z 00000KT 10SM CLR 24/24 A3003 RMK AO2 LTG DSNT W SLP166 TCU DSNT S T02440239

Conditions at: KAPF observed 23 July 2017  09:53 UTC
Temperature: 24.4°C (76°F)
Dewpoint: 23.9°C (75°F) [RH = 97%]
Pressure (altimeter): 30.01 inches Hg (1016.3 mb)
[Sea-level pressure: 1016.2 mb]
Winds: from the E (90 degrees) at 3 MPH (3 knots; 1.6 m/s)
Visibility: 10 or more miles (16+ km)
Ceiling: at least 12,000 feet AGL
Clouds: sky clear below 12,000 feet AGL
Present Weather: no significant weather observed at this time
KAPF 230953Z 09003KT 10SM CLR 24/24 A3001 RMK AO2 LTG DSNT W SLP162 T02440239

Conditions at: KAPF observed 23 July 2017  08:53 UTC
Temperature: 24.4°C (76°F)
Dewpoint: 23.9°C (75°F) [RH = 97%]
Pressure (altimeter): 30.01 inches Hg (1016.3 mb)
[Sea-level pressure: 1016.2 mb]
Winds: from the ENE (70 degrees) at 3 MPH (3 knots; 1.6 m/s)
Visibility: 10 or more miles (16+ km)
Ceiling: at least 12,000 feet AGL
Clouds: sky clear below 12,000 feet AGL
Present Weather: automated observation with no human augmentation;
there may or may not be significant weather present at this time
KAPF 230853Z AUTO 07003KT 10SM CLR 24/24 A3001 RMK AO2 SLP162 T02440239 58009

Conditions at: KAPF observed 23 July 2017  07:53 UTC
Temperature: 25.0°C (77°F)
Dewpoint: 23.9°C (75°F) [RH = 94%]
Pressure (altimeter): 30.02 inches Hg (1016.7 mb)
[Sea-level pressure: 1016.5 mb]
Winds: from the NNE (30 degrees) at 5 MPH (4 knots; 2.1 m/s)
Visibility: 10 or more miles (16+ km)
Ceiling: at least 12,000 feet AGL
Clouds: sky clear below 12,000 feet AGL
Present Weather: automated observation with no human augmentation;
there may or may not be significant weather present at this time
KAPF 230753Z AUTO 03004KT 10SM CLR 25/24 A3002 RMK AO2 SLP165 T02500239

Conditions at: KAPF observed 23 July 2017  06:53 UTC
Temperature: 25.6°C (78°F)
Dewpoint: 25.0°C (77°F) [RH = 96%]
Pressure (altimeter): 30.03 inches Hg (1017.0 mb)
[Sea-level pressure: 1016.9 mb]
Winds: calm
Visibility: 10 or more miles (16+ km)
Ceiling: at least 12,000 feet AGL
Clouds: sky clear below 12,000 feet AGL
Present Weather: automated observation with no human augmentation;
there may or may not be significant weather present at this time
KAPF 230653Z AUTO 00000KT 10SM CLR 26/25 A3003 RMK AO2 SLP169 T02560250

Conditions at: KAPF observed 23 July 2017  05:53 UTC
Temperature: 26.1°C (79°F)
Dewpoint: 25.0°C (77°F) [RH = 94%]
Pressure (altimeter): 30.04 inches Hg (1017.4 mb)
[Sea-level pressure: 1017.1 mb]
Winds: from the E (100 degrees) at 5 MPH (4 knots; 2.1 m/s)
Visibility: 10 or more miles (16+ km)
Ceiling: at least 12,000 feet AGL
Clouds: sky clear below 12,000 feet AGL
Present Weather: automated observation with no human augmentation;
there may or may not be significant weather present at this time
KAPF 230553Z AUTO 10004KT 10SM CLR 26/25 A3004 RMK AO2 SLP171 T02610250 10289 20261 58006

Conditions at: KAPF observed 23 July 2017  04:53 UTC
Temperature: 26.1°C (79°F)
Dewpoint: 24.4°C (76°F) [RH = 90%]
Pressure (altimeter): 30.05 inches Hg (1017.7 mb)
[Sea-level pressure: 1017.4 mb]
Winds: from the E (100 degrees) at 5 MPH (4 knots; 2.1 m/s)
Visibility: 10 or more miles (16+ km)
Ceiling: at least 12,000 feet AGL
Clouds: sky clear below 12,000 feet AGL
Present Weather: automated observation with no human augmentation;
there may or may not be significant weather present at this time
KAPF 230453Z AUTO 10004KT 10SM CLR 26/24 A3005 RMK AO2 SLP174 T02610244 403110250

Conditions at: KAPF observed 23 July 2017  03:53 UTC
Temperature: 26.7°C (80°F)
Dewpoint: 25.0°C (77°F) [RH = 90%]
Pressure (altimeter): 30.06 inches Hg (1018.0 mb)
[Sea-level pressure: 1017.7 mb]
Winds: calm
Visibility: 10 or more miles (16+ km)
Ceiling: at least 12,000 feet AGL
Clouds: sky clear below 12,000 feet AGL
Present Weather: automated observation with no human augmentation;
there may or may not be significant weather present at this time
KAPF 230353Z AUTO 00000KT 10SM CLR 27/25 A3006 RMK AO2 SLP177 T02670250

Conditions at: KAPF observed 23 July 2017  02:53 UTC
Temperature: 26.7°C (80°F)
Dewpoint: 25.0°C (77°F) [RH = 90%]
Pressure (altimeter): 30.06 inches Hg (1018.0 mb)
[Sea-level pressure: 1017.8 mb]
Winds: from the ESE (110 degrees) at 5 MPH (4 knots; 2.1 m/s)
Visibility: 10 or more miles (16+ km)
Ceiling: at least 12,000 feet AGL
Clouds: sky clear below 12,000 feet AGL
Present Weather: automated observation with no human augmentation;
there may or may not be significant weather present at this time
KAPF 230253Z AUTO 11004KT 10SM CLR 27/25 A3006 RMK AO2 SLP178 T02670250 51005

Conditions at: KAPF observed 23 July 2017  01:53 UTC
Temperature: 27.2°C (81°F)
Dewpoint: 25.0°C (77°F) [RH = 88%]
Pressure (altimeter): 30.05 inches Hg (1017.7 mb)
[Sea-level pressure: 1017.5 mb]
Winds: from the ESE (120 degrees) at 6 MPH (5 knots; 2.6 m/s)
Visibility: 10 or more miles (16+ km)
Ceiling: at least 12,000 feet AGL
Clouds: sky clear below 12,000 feet AGL
Present Weather: no significant weather observed at this time
KAPF 230153Z 12005KT 10SM CLR 27/25 A3005 RMK AO2 SLP175 T02720250

Conditions at: KAPF observed 23 July 2017  00:53 UTC
Temperature: 28.3°C (83°F)
Dewpoint: 25.0°C (77°F) [RH = 82%]
Pressure (altimeter): 30.05 inches Hg (1017.7 mb)
[Sea-level pressure: 1017.5 mb]
Winds: from the E (80 degrees) at 5 MPH (4 knots; 2.1 m/s)
Visibility: 10 or more miles (16+ km)
Ceiling: at least 12,000 feet AGL
Clouds: sky clear below 12,000 feet AGL
Present Weather: no significant weather observed at this time
KAPF 230053Z 08004KT 10SM CLR 28/25 A3005 RMK AO2 SLP175 T02830250

Conditions at: KAPF observed 22 July 2017  23:53 UTC
Temperature: 28.9°C (84°F)
Dewpoint: 25.0°C (77°F) [RH = 80%]
Pressure (altimeter): 30.04 inches Hg (1017.4 mb)
[Sea-level pressure: 1017.3 mb]
Winds: from the ENE (60 degrees) at 3 MPH (3 knots; 1.6 m/s)
Visibility: 10 or more miles (16+ km)
Ceiling: at least 12,000 feet AGL
Clouds: scattered clouds at 2500 feet AGL
Present Weather: no significant weather observed at this time
KAPF 222353Z 06003KT 10SM SCT025 29/25 A3004 RMK AO2 LTG DSNT SE SLP173 60000 T02890250 10311 20256 53001

Conditions at: KAPF observed 22 July 2017  22:53 UTC
Temperature: 30.6°C (87°F)
Dewpoint: 23.3°C (74°F) [RH = 65%]
Pressure (altimeter): 30.04 inches Hg (1017.4 mb)
[Sea-level pressure: 1017.1 mb]
Winds: from the W (280 degrees) at 5 MPH (4 knots; 2.1 m/s)
Visibility: 10 or more miles (16+ km)
Ceiling: at least 12,000 feet AGL
Clouds: sky clear below 12,000 feet AGL
Present Weather: no significant weather observed at this time
KAPF 222253Z 28004KT 10SM CLR 31/23 A3004 RMK AO2 SLP171 T03060233

Conditions at: KAPF observed 22 July 2017  21:53 UTC
Temperature: 30.0°C (86°F)
Dewpoint: 23.9°C (75°F) [RH = 70%]
Pressure (altimeter): 30.04 inches Hg (1017.4 mb)
[Sea-level pressure: 1017.1 mb]
Winds: calm
Visibility: 10 or more miles (16+ km)
Ceiling: at least 12,000 feet AGL
Clouds: sky clear below 12,000 feet AGL
Present Weather: no significant weather observed at this time
KAPF 222153Z 00000KT 10SM CLR 30/24 A3004 RMK AO2 SLP171 T03000239

Conditions at: KAPF observed 22 July 2017  20:53 UTC
Temperature: 29.4°C (85°F)
Dewpoint: 23.9°C (75°F) [RH = 72%]
Pressure (altimeter): 30.04 inches Hg (1017.4 mb)
[Sea-level pressure: 1017.2 mb]
Winds: calm
Visibility: 10 or more miles (16+ km)
Ceiling: 4000 feet AGL
Clouds: broken clouds at 4000 feet AGL
overcast cloud deck at 10000 feet AGL
Present Weather: no significant weather observed at this time
KAPF 222053Z 00000KT 10SM BKN040 OVC100 29/24 A3004 RMK AO2 SLP172 60000 T02940239 56018

Conditions at: KAPF observed 22 July 2017  19:53 UTC
Temperature: 27.2°C (81°F)
Dewpoint: 24.4°C (76°F) [RH = 85%]
Pressure (altimeter): 30.05 inches Hg (1017.7 mb)
[Sea-level pressure: 1017.6 mb]
Winds: from the ENE (60 degrees) at 3 MPH (3 knots; 1.6 m/s)
Visibility: 10 or more miles (16+ km)
Ceiling: 10000 feet AGL
Clouds: scattered clouds at 4000 feet AGL
overcast cloud deck at 10000 feet AGL
Present Weather: no significant weather observed at this time
KAPF 221953Z 06003KT 10SM SCT040 OVC100 27/24 A3005 RMK AO2 SLP176 T02720244

Conditions at: KAPF observed 22 July 2017  18:53 UTC
Temperature: 26.1°C (79°F)
Dewpoint: missing
Pressure (altimeter): 30.06 inches Hg (1018.0 mb)
[Sea-level pressure: 1017.8 mb]
Winds: from the NNE (30 degrees) at 6 MPH (5 knots; 2.6 m/s)
Visibility: 10 or more miles (16+ km)
Ceiling: at least 12,000 feet AGL
Clouds: sky clear below 12,000 feet AGL
Present Weather:
SOME DATA ABOVE MAY BE INACCURATE!!!
"$" is an indication the sensor requires maintenance
KAPF 221853Z 03005KT 10SM CLR 26/ A3006 RMK AO2 RAE1755 SLP178 P0000 T0261 $

Conditions at: KAPF observed 22 July 2017  18:10 UTC
Temperature: 25.6°C (78°F)
Dewpoint: missing
Pressure (altimeter): 30.09 inches Hg (1019.0 mb)
Winds: from the N (10 degrees) at 6 MPH (5 knots; 2.6 m/s)
Visibility: 10 or more miles (16+ km)
Ceiling: at least 12,000 feet AGL
Clouds: scattered clouds at 3900 feet AGL
scattered clouds at 4900 feet AGL
Present Weather:
SOME DATA ABOVE MAY BE INACCURATE!!!
"$" is an indication the sensor requires maintenance
KAPF 221810Z 01005KT 10SM SCT039 SCT049 26/ A3009 RMK AO2 LTG DSNT N-E RAE1755 P0000 T0256 $

Conditions at: KAPF observed 22 July 2017  17:53 UTC
Temperature: 25.6°C (78°F)
Dewpoint: missing
Pressure (altimeter): 30.09 inches Hg (1019.0 mb)
[Sea-level pressure: 1019.0 mb]
Winds: from the N (350 degrees) at 5 MPH (4 knots; 2.1 m/s)
Visibility: 7 miles (11 km)
Ceiling: 1800 feet AGL
Clouds: broken clouds at 1800 feet AGL
broken clouds at 4500 feet AGL
overcast cloud deck at 10000 feet AGL
Present Weather: -RA  (light rain)
SOME DATA ABOVE MAY BE INACCURATE!!!
"$" is an indication the sensor requires maintenance
KAPF 221753Z 35004KT 7SM -RA BKN018 BKN045 OVC100 26/ A3009 RMK AO2 LTG DSNT NW-E SLP190 P0003 60003 T0256 10306 20256 50001 $

Conditions at: KAPF observed 22 July 2017  17:50 UTC
Temperature: 26.0°C (79°F)
Dewpoint: missing
Pressure (altimeter): 30.10 inches Hg (1019.4 mb)
Winds: from the N (10 degrees) at 3 MPH (3 knots; 1.6 m/s)
Visibility: 7 miles (11 km)
Ceiling: 1800 feet AGL
Clouds: broken clouds at 1800 feet AGL
broken clouds at 4500 feet AGL
overcast cloud deck at 10000 feet AGL
Present Weather: -RA  (light rain)
SOME DATA ABOVE MAY BE INACCURATE!!!
"$" is an indication the sensor requires maintenance
KAPF 221750Z 01003KT 7SM -RA BKN018 BKN045 OVC100 26/ A3010 RMK AO2 LTG DSNT NW-E P0003 $

Conditions at: KAPF observed 22 July 2017  17:03 UTC
Temperature: 25.6°C (78°F)
Dewpoint: 25.0°C (77°F) [RH = 96%]
Pressure (altimeter): 30.11 inches Hg (1019.7 mb)
Winds: from the NNW (330 degrees) at 5 MPH (4 knots; 2.1 m/s)
Visibility: 5 miles (8 km)
Ceiling: 2400 feet AGL
Clouds: broken clouds at 2400 feet AGL
broken clouds at 4300 feet AGL
overcast cloud deck at 10000 feet AGL
Present Weather: VCTS -RA BR  (thunderstorm in vicinity, light rain, mist)
SOME DATA ABOVE MAY BE INACCURATE!!!
"$" is an indication the sensor requires maintenance
KAPF 221703Z 33004KT 5SM VCTS -RA BR BKN024 BKN043 OVC100 26/25 A3011 RMK AO2 LTG DSNT ALQDS P0002 T02560250 $

Conditions at: KAPF observed 22 July 2017  16:53 UTC
Temperature: 25.6°C (78°F)
Dewpoint: 23.3°C (74°F) [RH = 87%]
Pressure (altimeter): 30.13 inches Hg (1020.4 mb)
[Sea-level pressure: 1020.1 mb]
Winds: from the N (10 degrees) at 3 MPH (3 knots; 1.6 m/s)
Visibility: 7 miles (11 km)
Ceiling: 3100 feet AGL
Clouds: scattered clouds at 2200 feet AGL
broken clouds at 3100 feet AGL
overcast cloud deck at 10000 feet AGL
Present Weather: VCTS -RA  (thunderstorm in vicinity, light rain)
KAPF 221653Z 01003KT 7SM VCTS -RA SCT022 BKN031 OVC100 26/23 A3013 RMK AO2 LTG DSNT ALQDS RAB40 SLP201 P0000 T02560233

Conditions at: KAPF observed 22 July 2017  16:46 UTC
Temperature: 26.1°C (79°F)
Dewpoint: 23.3°C (74°F) [RH = 85%]
Pressure (altimeter): 30.12 inches Hg (1020.1 mb)
Winds: from the N (10 degrees) at 8 MPH (7 knots; 3.6 m/s)
Visibility: 8 miles (13 km)
Ceiling: 2200 feet AGL
Clouds: broken clouds at 2200 feet AGL
broken clouds at 3400 feet AGL
broken clouds at 10000 feet AGL
Present Weather: VCTS -RA  (thunderstorm in vicinity, light rain)
KAPF 221646Z 01007KT 8SM VCTS -RA BKN022 BKN034 BKN100 26/23 A3012 RMK AO2 LTG DSNT ALQDS RAB40 P0000 T02610233

Conditions at: KAPF observed 22 July 2017  15:53 UTC
Temperature: 28.3°C (83°F)
Dewpoint: 23.3°C (74°F) [RH = 74%]
Pressure (altimeter): 30.09 inches Hg (1019.0 mb)
[Sea-level pressure: 1018.9 mb]
Winds: from the WSW (240 degrees) at 9 MPH (8 knots; 4.2 m/s)
Visibility: 10 or more miles (16+ km)
Ceiling: at least 12,000 feet AGL
Clouds: few clouds at 2400 feet AGL
scattered clouds at 3200 feet AGL
Present Weather: VCTS  (thunderstorm in vicinity)
KAPF 221553Z 24008KT 10SM VCTS FEW024 SCT032 28/23 A3009 RMK AO2 LTG DSNT ALQDS SLP189 T02830233

Conditions at: KAPF observed 22 July 2017  14:53 UTC
Temperature: 30.6°C (87°F)
Dewpoint: 25.0°C (77°F) [RH = 72%]
Pressure (altimeter): 30.10 inches Hg (1019.4 mb)
[Sea-level pressure: 1019.2 mb]
Winds: from the SSE (160 degrees) at 6 MPH (5 knots; 2.6 m/s)
Visibility: 10 or more miles (16+ km)
Ceiling: at least 12,000 feet AGL
Clouds: scattered clouds at 2300 feet AGL
Present Weather: VCTS  (thunderstorm in vicinity)
KAPF 221453Z 16005KT 10SM VCTS SCT023 31/25 A3010 RMK AO2 LTG DSNT SW-NW SLP192 T03060250 53012

Conditions at: KAPF observed 22 July 2017  13:53 UTC
Temperature: 29.4°C (85°F)
Dewpoint: 25.6°C (78°F) [RH = 80%]
Pressure (altimeter): 30.08 inches Hg (1018.7 mb)
[Sea-level pressure: 1018.5 mb]
Winds: variable direction winds at 3 MPH (3 knots; 1.6 m/s)
Visibility: 10 or more miles (16+ km)
Ceiling: at least 12,000 feet AGL
Clouds: sky clear below 12,000 feet AGL
Present Weather: no significant weather observed at this time
KAPF 221353Z VRB03KT 10SM CLR 29/26 A3008 RMK AO2 LTG DSNT S SLP185 T02940256

Conditions at: KAPF observed 22 July 2017  12:53 UTC
Temperature: 27.8°C (82°F)
Dewpoint: 25.0°C (77°F) [RH = 85%]
Pressure (altimeter): 30.08 inches Hg (1018.7 mb)
[Sea-level pressure: 1018.4 mb]
Winds: from the SE (140 degrees) at 7 MPH (6 knots; 3.1 m/s)
Visibility: 10 or more miles (16+ km)
Ceiling: at least 12,000 feet AGL
Clouds: sky clear below 12,000 feet AGL
Present Weather: no significant weather observed at this time
KAPF 221253Z 14006KT 10SM CLR 28/25 A3008 RMK AO2 LTG DSNT SW SLP184 T02780250

Conditions at: KAPF observed 22 July 2017  11:53 UTC
Temperature: 26.7°C (80°F)
Dewpoint: 23.9°C (75°F) [RH = 85%]
Pressure (altimeter): 30.07 inches Hg (1018.4 mb)
[Sea-level pressure: 1018.0 mb]
Winds: calm
Visibility: 10 or more miles (16+ km)
Ceiling: at least 12,000 feet AGL
Clouds: sky clear below 12,000 feet AGL
Present Weather: no significant weather observed at this time
KAPF 221153Z 00000KT 10SM CLR 27/24 A3007 RMK AO2 SLP180 70019 T02670239 10267 20250 51014

Conditions at: KAPF observed 22 July 2017  10:53 UTC
Temperature: 25.0°C (77°F)
Dewpoint: 23.9°C (75°F) [RH = 94%]
Pressure (altimeter): 30.05 inches Hg (1017.7 mb)
[Sea-level pressure: 1017.5 mb]
Winds: from the E (100 degrees) at 5 MPH (4 knots; 2.1 m/s)
Visibility: 10 or more miles (16+ km)
Ceiling: at least 12,000 feet AGL
Clouds: sky clear below 12,000 feet AGL
Present Weather: no significant weather observed at this time
KAPF 221053Z 10004KT 10SM CLR 25/24 A3005 RMK AO2 SLP175 T02500239

Conditions at: KAPF observed 22 July 2017  09:53 UTC
Temperature: 25.0°C (77°F)
Dewpoint: 23.9°C (75°F) [RH = 94%]
Pressure (altimeter): 30.05 inches Hg (1017.7 mb)
[Sea-level pressure: 1017.3 mb]
Winds: from the ESE (110 degrees) at 3 MPH (3 knots; 1.6 m/s)
Visibility: 10 or more miles (16+ km)
Ceiling: at least 12,000 feet AGL
Clouds: few clouds at 4300 feet AGL
Present Weather: VCTS  (thunderstorm in vicinity)
KAPF 220953Z 11003KT 10SM VCTS FEW043 25/24 A3005 RMK AO2 LTG DSNT S-W SLP173 T02500239

Conditions at: KAPF observed 22 July 2017  09:45 UTC
Temperature: 25.0°C (77°F)
Dewpoint: 23.9°C (75°F) [RH = 94%]
Pressure (altimeter): 30.04 inches Hg (1017.4 mb)
Winds: from the E (100 degrees) at 6 MPH (5 knots; 2.6 m/s)
Visibility: 10 or more miles (16+ km)
Ceiling: at least 12,000 feet AGL
Clouds: sky clear below 12,000 feet AGL
Present Weather: VCTS  (thunderstorm in vicinity)
KAPF 220945Z AUTO 10005KT 10SM VCTS CLR 25/24 A3004 RMK AO2 LTG DSNT SE-W T02500239

Conditions at: KAPF observed 22 July 2017  08:53 UTC
Temperature: 25.0°C (77°F)
Dewpoint: 23.9°C (75°F) [RH = 94%]
Pressure (altimeter): 30.02 inches Hg (1016.7 mb)
[Sea-level pressure: 1016.6 mb]
Winds: from the ESE (120 degrees) at 6 MPH (5 knots; 2.6 m/s)
Visibility: 10 or more miles (16+ km)
Ceiling: at least 12,000 feet AGL
Clouds: sky clear below 12,000 feet AGL
Present Weather: automated observation with no human augmentation;
there may or may not be significant weather present at this time
KAPF 220853Z AUTO 12005KT 10SM CLR 25/24 A3002 RMK AO2 LTG DSNT W SLP166 T02500239 56010